Time;durP1;ratioP1;P1;durP2;ratioP2;P2;SDS_P1;SDS_P2;PMS_P1;PMS_P2;Temp;Humidity;BMP_temperature;BMP_pressure;BME280_temperature;BME280_humidity;BME280_pressure;Samples;Min_cycle;Max_cycle;Signal;HPM_P1;HPM_P2
2022/03/27 00:01:52;;;;;;;3.40;2.90;;;18.40;45.80;;;;;;5056977;28;20574;-11
2022/03/27 00:04:18;;;;;;;3.47;3.00;;;18.40;45.90;;;;;;5056634;28;20199;-11
2022/03/27 00:06:44;;;;;;;3.53;3.00;;;18.40;45.90;;;;;;5038890;28;20202;-11
2022/03/27 00:09:16;;;;;;;3.10;2.80;;;18.40;45.90;;;;;;5056695;28;20176;-11
2022/03/27 00:11:41;;;;;;;2.93;2.63;;;18.40;45.90;;;;;;5056931;28;20203;-11
2022/03/27 00:14:07;;;;;;;3.90;2.90;;;18.40;45.90;;;;;;5039953;28;20177;-11
2022/03/27 00:16:34;;;;;;;3.40;2.90;;;18.40;45.90;;;;;;5056734;28;20204;-11
2022/03/27 00:19:00;;;;;;;3.10;2.80;;;18.30;45.90;;;;;;5039710;28;20458;-11
2022/03/27 00:21:26;;;;;;;2.93;2.63;;;18.30;45.90;;;;;;5056727;28;20250;-11
2022/03/27 00:23:53;;;;;;;3.07;2.77;;;18.30;45.90;;;;;;5039211;28;20187;-11
2022/03/27 00:26:20;;;;;;;3.33;2.90;;;18.30;45.90;;;;;;5056909;28;20584;-11
2022/03/27 00:28:46;;;;;;;3.07;2.77;;;18.30;45.90;;;;;;5039605;28;20184;-11
2022/03/27 00:31:12;;;;;;;3.00;2.70;;;18.30;45.90;;;;;;5057542;28;20639;-11
2022/03/27 00:33:40;;;;;;;3.03;2.73;;;18.30;45.90;;;;;;5057330;28;20172;-11
2022/03/27 00:36:10;;;;;;;3.27;2.70;;;18.30;45.90;;;;;;5056819;28;20289;-11
2022/03/27 00:38:37;;;;;;;3.00;2.67;;;18.30;46.00;;;;;;5040099;28;20284;-11
2022/03/27 00:41:04;;;;;;;2.97;2.70;;;18.30;46.00;;;;;;5039972;28;20249;-11
2022/03/27 00:43:30;;;;;;;2.97;2.63;;;18.30;46.00;;;;;;5042517;28;20176;-11
2022/03/27 00:45:58;;;;;;;2.90;2.50;;;18.30;45.90;;;;;;5061628;28;20270;-11
2022/03/27 00:48:24;;;;;;;2.67;2.47;;;18.30;45.90;;;;;;5062872;28;20174;-11
2022/03/27 00:50:51;;;;;;;2.93;2.70;;;18.30;45.90;;;;;;5044151;28;20230;-11
2022/03/27 00:53:18;;;;;;;3.40;2.43;;;18.30;46.00;;;;;;5043990;28;20181;-11
2022/03/27 00:55:45;;;;;;;3.00;2.70;;;18.20;45.90;;;;;;5060689;28;20294;-11
2022/03/27 00:58:12;;;;;;;2.90;2.60;;;18.20;45.90;;;;;;5044012;28;20215;-11
2022/03/27 01:00:42;;;;;;;3.07;2.47;;;18.20;45.90;;;;;;5043557;28;20219;-11
2022/03/27 01:03:16;;;;;;;3.03;2.73;;;18.20;46.00;;;;;;5059690;28;20428;-11
2022/03/27 01:05:44;;;;;;;2.70;2.50;;;18.20;45.90;;;;;;5059828;28;20602;-11
2022/03/27 01:08:11;;;;;;;2.50;2.30;;;18.20;45.90;;;;;;5061030;28;20160;-11
2022/03/27 01:10:38;;;;;;;2.57;2.27;;;18.20;45.90;;;;;;5060305;28;20176;-11
2022/03/27 01:13:12;;;;;;;2.93;2.43;;;18.20;45.90;;;;;;5060918;28;20188;-12
2022/03/27 01:15:45;;;;;;;2.90;2.37;;;18.20;45.90;;;;;;5060592;28;20478;-11
2022/03/27 01:18:12;;;;;;;2.60;2.40;;;18.20;45.90;;;;;;5061452;28;20183;-11
2022/03/27 01:20:41;;;;;;;2.77;2.30;;;18.20;45.90;;;;;;5043712;28;20229;-11
2022/03/27 01:23:11;;;;;;;2.60;2.40;;;18.20;46.00;;;;;;5042987;28;20180;-11
2022/03/27 01:25:40;;;;;;;2.53;2.33;;;18.20;46.00;;;;;;5060779;28;20593;-11
2022/03/27 01:28:08;;;;;;;3.30;2.60;;;18.20;46.00;;;;;;5043006;28;20175;-11
2022/03/27 01:30:35;;;;;;;2.60;2.40;;;18.20;46.00;;;;;;5043023;28;20621;-11
2022/03/27 01:33:05;;;;;;;3.10;2.47;;;18.20;46.00;;;;;;5042430;28;20431;-11
2022/03/27 01:35:52;;;;;;;2.97;2.50;;;18.20;46.00;;;;;;5043148;28;20436;-11
2022/03/27 01:38:18;;;;;;;2.50;2.30;;;18.20;46.00;;;;;;5042897;28;20183;-11
2022/03/27 01:40:44;;;;;;;3.00;2.40;;;18.20;46.00;;;;;;5043205;28;20238;-11
2022/03/27 01:43:10;;;;;;;2.60;2.40;;;18.20;46.00;;;;;;5042983;28;20535;-11
2022/03/27 01:45:41;;;;;;;2.20;2.00;;;18.20;46.00;;;;;;5042672;28;20230;-11
2022/03/27 01:48:07;;;;;;;2.67;2.47;;;18.20;46.00;;;;;;5043131;28;20166;-11
2022/03/27 01:50:32;;;;;;;3.00;2.70;;;18.20;46.00;;;;;;5042544;28;20525;-11
2022/03/27 01:52:58;;;;;;;2.63;2.30;;;18.10;46.00;;;;;;5060741;28;20207;-11
2022/03/27 01:55:26;;;;;;;2.63;2.30;;;18.10;45.90;;;;;;5058709;28;20174;-11
2022/03/27 01:57:52;;;;;;;3.70;2.30;;;18.10;45.90;;;;;;5060039;28;20187;-11
2022/03/27 02:00:18;;;;;;;2.77;2.43;;;18.10;45.90;;;;;;5059898;28;20241;-11
2022/03/27 02:02:43;;;;;;;2.47;2.27;;;18.10;45.90;;;;;;5059517;28;20184;-11
2022/03/27 02:05:11;;;;;;;2.40;2.20;;;18.10;45.90;;;;;;5042549;28;20589;-11
2022/03/27 02:07:45;;;;;;;2.30;2.10;;;18.10;45.90;;;;;;5042892;28;20180;-11
2022/03/27 02:10:11;;;;;;;4.57;2.30;;;18.10;45.90;;;;;;5042455;28;20185;-11
2022/03/27 02:12:37;;;;;;;2.40;2.20;;;18.10;45.90;;;;;;5059707;28;20474;-11
2022/03/27 02:15:07;;;;;;;2.80;2.33;;;18.10;45.90;;;;;;5059404;28;20178;-11
2022/03/27 02:17:38;;;;;;;2.77;2.10;;;18.10;45.90;;;;;;5060108;28;20455;-11
2022/03/27 02:20:11;;;;;;;2.57;2.20;;;18.10;45.90;;;;;;5041839;28;20582;-11
2022/03/27 02:22:37;;;;;;;2.30;2.10;;;18.10;45.80;;;;;;5059260;28;20176;-11
2022/03/27 02:25:04;;;;;;;2.30;2.07;;;18.10;45.80;;;;;;5059173;28;20690;-11
2022/03/27 02:27:30;;;;;;;2.20;2.00;;;18.10;45.80;;;;;;5042263;28;20708;-11
2022/03/27 02:29:56;;;;;;;2.17;1.97;;;18.10;45.80;;;;;;5059326;28;20226;-11
2022/03/27 02:32:22;;;;;;;2.30;2.03;;;18.10;45.80;;;;;;5059267;28;20217;-11
2022/03/27 02:34:47;;;;;;;2.40;2.20;;;18.10;45.80;;;;;;5059204;28;20194;-11
2022/03/27 02:37:13;;;;;;;2.20;2.00;;;18.10;45.80;;;;;;5059467;28;20243;-11
2022/03/27 02:39:44;;;;;;;2.67;2.47;;;18.10;45.80;;;;;;5042721;28;20187;-11
2022/03/27 02:42:10;;;;;;;3.47;2.30;;;18.10;45.80;;;;;;5059250;28;20171;-11
2022/03/27 02:44:37;;;;;;;2.70;2.17;;;18.10;45.80;;;;;;5059370;28;20168;-11
2022/03/27 02:47:04;;;;;;;2.13;1.93;;;18.10;45.80;;;;;;5059332;28;20462;-11
2022/03/27 02:49:30;;;;;;;2.23;2.03;;;18.10;45.80;;;;;;5041769;28;20195;-11
2022/03/27 02:51:56;;;;;;;2.80;2.00;;;18.10;45.90;;;;;;5059276;28;20171;-11
2022/03/27 02:54:24;;;;;;;3.13;2.30;;;18.00;45.80;;;;;;5041528;28;20186;-11
2022/03/27 02:56:49;;;;;;;2.30;1.93;;;18.00;45.90;;;;;;5042128;28;20176;-11
2022/03/27 02:59:16;;;;;;;2.33;2.07;;;18.00;45.90;;;;;;5059326;28;20227;-11
2022/03/27 03:01:42;;;;;;;2.27;2.07;;;18.00;45.90;;;;;;5058615;28;20807;-11
2022/03/27 03:04:08;;;;;;;2.63;1.80;;;18.00;45.80;;;;;;5058456;28;20219;-11
2022/03/27 03:06:34;;;;;;;2.30;1.93;;;18.00;45.90;;;;;;5040629;28;20240;-11
2022/03/27 03:09:00;;;;;;;2.43;1.90;;;18.00;45.80;;;;;;5058547;28;20274;-11
2022/03/27 03:11:26;;;;;;;2.30;2.00;;;18.00;45.80;;;;;;5058188;28;20205;-11
2022/03/27 03:13:52;;;;;;;1.90;1.80;;;18.00;45.90;;;;;;5041037;28;20277;-11
2022/03/27 03:16:19;;;;;;;1.90;1.80;;;18.00;45.80;;;;;;5058510;28;20174;-11
2022/03/27 03:18:45;;;;;;;2.20;1.90;;;18.10;45.80;;;;;;5041252;28;20179;-11
2022/03/27 03:21:12;;;;;;;2.93;2.50;;;18.00;45.80;;;;;;5058400;28;20177;-11
2022/03/27 03:23:37;;;;;;;2.30;2.10;;;18.10;45.90;;;;;;5058396;28;20675;-11
2022/03/27 03:26:06;;;;;;;3.17;2.33;;;18.00;45.80;;;;;;5058637;28;20279;-11
2022/03/27 03:28:31;;;;;;;2.30;2.10;;;18.10;45.90;;;;;;5041148;28;20249;-11
2022/03/27 03:31:00;;;;;;;2.37;2.00;;;18.10;45.90;;;;;;5041159;28;20187;-11
2022/03/27 03:33:26;;;;;;;2.13;1.93;;;18.10;45.90;;;;;;5040924;28;20183;-11
2022/03/27 03:35:52;;;;;;;4.33;2.10;;;18.10;45.90;;;;;;5041629;28;20187;-11
2022/03/27 03:38:18;;;;;;;2.23;1.93;;;18.00;46.00;;;;;;5058317;28;20184;-11
2022/03/27 03:40:44;;;;;;;2.67;2.13;;;18.00;45.80;;;;;;5041281;28;20208;-11
2022/03/27 03:43:11;;;;;;;2.27;1.90;;;18.10;45.90;;;;;;5058074;28;20598;-11
2022/03/27 03:45:37;;;;;;;2.30;2.03;;;18.10;45.90;;;;;;5058370;28;20208;-11
2022/03/27 03:48:04;;;;;;;2.07;1.87;;;18.10;45.90;;;;;;5040823;28;20182;-11
2022/03/27 03:50:35;;;;;;;2.17;2.00;;;18.10;45.90;;;;;;5057815;28;20164;-11
2022/03/27 03:53:01;;;;;;;2.33;2.00;;;18.10;45.90;;;;;;5040981;28;20164;-11
2022/03/27 03:55:28;;;;;;;2.37;2.00;;;18.10;45.90;;;;;;5057593;28;20178;-11
2022/03/27 03:57:54;;;;;;;1.70;1.60;;;18.00;45.80;;;;;;5057638;28;20168;-11
2022/03/27 04:00:23;;;;;;;2.03;1.83;;;18.00;45.80;;;;;;5058020;28;20173;-11
2022/03/27 04:02:49;;;;;;;2.00;1.80;;;18.00;45.80;;;;;;5057471;28;20287;-11
2022/03/27 04:05:15;;;;;;;2.10;1.90;;;18.00;45.80;;;;;;5057506;28;20229;-11
2022/03/27 04:07:40;;;;;;;2.07;1.87;;;18.00;45.80;;;;;;5057652;28;20206;-11
2022/03/27 04:10:07;;;;;;;2.33;1.80;;;18.00;45.80;;;;;;5057946;28;20172;-11
2022/03/27 04:12:32;;;;;;;1.87;1.73;;;18.00;45.80;;;;;;5056781;28;20634;-11
2022/03/27 04:14:58;;;;;;;2.03;1.83;;;18.00;45.80;;;;;;5040096;28;20286;-11
2022/03/27 04:17:24;;;;;;;1.80;1.70;;;18.00;45.80;;;;;;5039933;28;20261;-11
2022/03/27 04:19:50;;;;;;;1.70;1.60;;;18.00;45.80;;;;;;5057380;28;20256;-11
2022/03/27 04:22:16;;;;;;;2.07;1.87;;;18.00;45.80;;;;;;5057224;28;20219;-11
2022/03/27 04:24:42;;;;;;;2.10;1.90;;;18.00;45.80;;;;;;5040195;28;20512;-11
2022/03/27 04:27:08;;;;;;;1.80;1.70;;;18.00;45.80;;;;;;5040339;28;20606;-11
2022/03/27 04:29:34;;;;;;;1.70;1.60;;;18.00;45.80;;;;;;5057395;28;20163;-11
2022/03/27 04:32:00;;;;;;;1.90;1.60;;;18.00;45.80;;;;;;5057422;28;20183;-11
2022/03/27 04:34:25;;;;;;;2.00;1.80;;;18.00;45.80;;;;;;5057259;28;20172;-11
2022/03/27 04:36:53;;;;;;;1.70;1.60;;;18.00;45.80;;;;;;5057333;28;20168;-11
2022/03/27 04:39:19;;;;;;;2.10;1.70;;;18.00;45.80;;;;;;5040141;28;20267;-11
2022/03/27 04:41:46;;;;;;;1.90;1.80;;;18.00;45.80;;;;;;5057216;28;20187;-11
2022/03/27 04:44:13;;;;;;;2.17;1.97;;;18.00;45.80;;;;;;5039715;28;20180;-11
2022/03/27 04:46:38;;;;;;;1.90;1.80;;;18.00;45.80;;;;;;5057025;28;20204;-11
2022/03/27 04:49:04;;;;;;;1.83;1.70;;;18.00;45.80;;;;;;5040382;28;20184;-11
2022/03/27 04:51:31;;;;;;;2.57;1.83;;;18.00;45.90;;;;;;5039386;28;20228;-11
2022/03/27 04:53:57;;;;;;;1.80;1.70;;;18.00;45.90;;;;;;5056696;28;20778;-11
2022/03/27 04:56:23;;;;;;;2.40;2.10;;;18.00;45.90;;;;;;5056912;28;20210;-11
2022/03/27 04:58:49;;;;;;;2.07;1.87;;;18.00;45.90;;;;;;5057462;28;20266;-11
2022/03/27 05:01:20;;;;;;;1.87;1.67;;;18.00;45.90;;;;;;5057212;28;20478;-11
2022/03/27 05:03:45;;;;;;;1.50;1.40;;;18.00;45.80;;;;;;5056622;28;20246;-11
2022/03/27 05:06:11;;;;;;;2.23;1.87;;;18.00;45.90;;;;;;5039545;28;20218;-11
2022/03/27 05:08:37;;;;;;;2.17;1.53;;;18.00;45.80;;;;;;5056875;28;20486;-11
2022/03/27 05:11:02;;;;;;;1.67;1.50;;;17.90;45.80;;;;;;5056899;28;20294;-11
2022/03/27 05:13:28;;;;;;;1.60;1.50;;;17.90;45.80;;;;;;5056845;28;20177;-11
2022/03/27 05:15:54;;;;;;;2.00;1.60;;;17.90;45.80;;;;;;5056713;28;20190;-11
2022/03/27 05:18:21;;;;;;;2.30;1.70;;;17.90;45.80;;;;;;5039996;28;20189;-11
2022/03/27 05:20:48;;;;;;;2.00;1.80;;;17.90;45.90;;;;;;5039575;28;20176;-11
2022/03/27 05:23:14;;;;;;;1.93;1.77;;;17.80;45.80;;;;;;5039706;28;20176;-11
2022/03/27 05:25:41;;;;;;;1.80;1.63;;;17.80;45.90;;;;;;5039289;28;20269;-11
2022/03/27 05:28:10;;;;;;;1.97;1.77;;;17.80;45.90;;;;;;5056671;28;20152;-11
2022/03/27 05:30:37;;;;;;;1.97;1.80;;;17.80;46.00;;;;;;5060468;28;20240;-11
2022/03/27 05:33:03;;;;;;;2.07;1.90;;;18.10;45.90;;;;;;5060096;28;20172;-11
2022/03/27 05:35:29;;;;;;;2.70;1.80;;;19.50;44.80;;;;;;5060377;28;20202;-11
2022/03/27 05:37:55;;;;;;;2.47;1.90;;;20.90;42.80;;;;;;5042817;28;20252;-11
2022/03/27 05:40:22;;;;;;;2.00;1.80;;;22.00;41.60;;;;;;5059819;28;20182;-11
2022/03/27 05:42:49;;;;;;;1.87;1.70;;;22.70;40.80;;;;;;5060158;28;20502;-11
2022/03/27 05:45:15;;;;;;;1.90;1.60;;;23.10;40.40;;;;;;5042518;28;20588;-11
2022/03/27 05:47:42;;;;;;;2.23;1.93;;;23.30;40.10;;;;;;5042832;28;20174;-11
2022/03/27 05:50:15;;;;;;;2.37;2.17;;;23.50;39.90;;;;;;5042829;28;20435;-11
2022/03/27 05:52:44;;;;;;;2.37;2.10;;;23.60;39.70;;;;;;5060349;28;20179;-11
2022/03/27 05:55:12;;;;;;;2.60;2.00;;;23.60;39.70;;;;;;5060525;28;20261;-11
2022/03/27 05:57:38;;;;;;;2.27;2.03;;;23.50;39.70;;;;;;5043962;28;20182;-11
2022/03/27 06:00:06;;;;;;;2.23;1.90;;;23.30;39.80;;;;;;5061694;28;20247;-11
2022/03/27 06:02:32;;;;;;;2.73;2.10;;;23.10;40.00;;;;;;5059666;28;20190;-12
2022/03/27 06:05:04;;;;;;;2.50;2.30;;;22.80;40.20;;;;;;5059106;28;20215;-11
2022/03/27 06:07:29;;;;;;;2.40;2.20;;;22.50;40.50;;;;;;5042485;28;20168;-11
2022/03/27 06:09:55;;;;;;;2.30;2.10;;;22.30;40.70;;;;;;5041733;28;20183;-11
2022/03/27 06:12:21;;;;;;;2.63;2.23;;;22.10;41.00;;;;;;5042029;28;20196;-11
2022/03/27 06:14:48;;;;;;;4.30;2.90;;;21.90;41.20;;;;;;5059171;28;20190;-11
2022/03/27 06:17:15;;;;;;;4.37;3.50;;;21.70;41.50;;;;;;5042193;28;20175;-11
2022/03/27 06:19:41;;;;;;;4.47;3.27;;;21.50;41.80;;;;;;5059780;28;20184;-11
2022/03/27 06:22:07;;;;;;;4.70;3.43;;;21.30;42.00;;;;;;5059033;28;20180;-11
2022/03/27 06:24:33;;;;;;;5.63;3.97;;;21.10;42.20;;;;;;5059273;28;20171;-11
2022/03/27 06:26:58;;;;;;;5.87;3.73;;;20.90;42.80;;;;;;5041717;28;20276;-11
2022/03/27 06:29:24;;;;;;;5.43;3.97;;;20.80;42.70;;;;;;5059530;28;20169;-11
2022/03/27 06:31:50;;;;;;;4.40;3.50;;;20.60;42.70;;;;;;5058553;28;20570;-11
2022/03/27 06:34:18;;;;;;;5.23;3.77;;;20.50;42.90;;;;;;5058953;28;20177;-11
2022/03/27 06:36:44;;;;;;;5.13;3.90;;;20.40;43.10;;;;;;5058752;28;20250;-11
2022/03/27 06:39:10;;;;;;;5.77;4.47;;;20.30;43.30;;;;;;5041232;28;20191;-11
2022/03/27 06:41:36;;;;;;;6.63;4.37;;;20.10;43.40;;;;;;5058066;28;20173;-11
2022/03/27 06:44:02;;;;;;;4.60;4.10;;;20.00;43.60;;;;;;5058009;28;20263;-11
2022/03/27 06:46:28;;;;;;;6.97;5.00;;;19.90;43.70;;;;;;5058477;28;20578;-11
2022/03/27 06:48:54;;;;;;;5.97;4.70;;;19.80;43.80;;;;;;5058734;28;20193;-11
2022/03/27 06:51:20;;;;;;;5.90;4.37;;;19.70;44.00;;;;;;5040956;28;20172;-11
2022/03/27 06:53:47;;;;;;;7.53;5.27;;;19.60;44.50;;;;;;5058989;28;20157;-11
2022/03/27 06:56:13;;;;;;;5.90;4.80;;;19.50;44.30;;;;;;5058392;28;20638;-11
2022/03/27 06:58:39;;;;;;;5.90;4.40;;;19.40;44.40;;;;;;5058826;28;20169;-11
2022/03/27 07:03:51;;;;;;;5.80;4.50;;;19.20;44.60;;;;;;5057857;28;20222;-11
2022/03/27 07:06:17;;;;;;;5.97;4.90;;;19.20;44.80;;;;;;5058053;28;20244;-11
2022/03/27 07:08:44;;;;;;;6.33;5.00;;;19.10;44.80;;;;;;5041062;28;20266;-11
2022/03/27 07:11:10;;;;;;;5.67;5.07;;;19.10;45.00;;;;;;5057614;28;20177;-11
2022/03/27 07:13:35;;;;;;;6.23;4.60;;;19.00;45.00;;;;;;5057885;28;20183;-11
2022/03/27 07:16:01;;;;;;;5.83;5.03;;;18.90;45.10;;;;;;5057996;28;20274;-11
2022/03/27 07:18:26;;;;;;;5.97;5.10;;;18.90;45.20;;;;;;5056347;28;20184;-11
2022/03/27 07:20:52;;;;;;;6.17;4.90;;;18.90;45.20;;;;;;5057905;28;20235;-11
2022/03/27 07:23:20;;;;;;;7.13;5.37;;;18.90;45.20;;;;;;5057242;28;20732;-11
2022/03/27 07:25:50;;;;;;;6.33;4.77;;;19.00;45.20;;;;;;5057137;28;20269;-11
2022/03/27 07:28:16;;;;;;;5.87;4.80;;;19.00;45.20;;;;;;5057402;28;20181;-11
2022/03/27 07:30:43;;;;;;;6.47;4.60;;;19.10;45.00;;;;;;5057596;28;20574;-11
2022/03/27 07:33:10;;;;;;;6.37;4.97;;;19.40;44.90;;;;;;5039848;28;20176;-11
2022/03/27 07:35:37;;;;;;;6.67;4.90;;;19.70;44.60;;;;;;5040528;28;20185;-11
2022/03/27 07:38:04;;;;;;;6.40;4.53;;;20.10;44.20;;;;;;5057240;28;20564;-11
2022/03/27 07:40:31;;;;;;;6.37;4.67;;;20.50;43.60;;;;;;5056464;28;20589;-11
2022/03/27 07:42:57;;;;;;;6.13;4.73;;;20.90;43.10;;;;;;5057296;28;20183;-11
2022/03/27 07:45:25;;;;;;;5.63;4.13;;;21.10;42.80;;;;;;5039970;28;20214;-11
2022/03/27 07:47:53;;;;;;;6.20;4.93;;;21.20;42.60;;;;;;5057620;28;20168;-11
2022/03/27 07:50:20;;;;;;;5.27;3.93;;;21.30;42.90;;;;;;5040165;28;20207;-11
2022/03/27 07:52:46;;;;;;;5.10;4.17;;;21.50;42.40;;;;;;5055964;28;20197;-11
2022/03/27 07:55:14;;;;;;;5.37;4.30;;;21.60;42.20;;;;;;5057435;28;20262;-11
2022/03/27 07:57:41;;;;;;;6.40;4.50;;;21.70;42.10;;;;;;5039331;28;20184;-11
2022/03/27 08:00:11;;;;;;;6.47;4.37;;;21.80;42.10;;;;;;5039630;28;20228;-11
2022/03/27 08:02:41;;;;;;;5.43;4.20;;;21.80;42.10;;;;;;5039089;28;20181;-11
2022/03/27 08:05:08;;;;;;;4.70;4.17;;;21.70;42.00;;;;;;5056557;28;20206;-11
2022/03/27 08:07:34;;;;;;;5.73;4.00;;;21.60;42.20;;;;;;5056099;28;20575;-11
2022/03/27 08:10:00;;;;;;;5.73;4.23;;;21.50;42.30;;;;;;5038223;28;20208;-11
2022/03/27 08:12:27;;;;;;;6.60;4.07;;;21.30;42.40;;;;;;5038602;28;20218;-11
2022/03/27 08:14:53;;;;;;;5.20;4.20;;;21.20;42.60;;;;;;5056952;28;20183;-11
2022/03/27 08:17:20;;;;;;;4.60;3.87;;;21.00;42.70;;;;;;5056613;28;20173;-11
2022/03/27 08:19:47;;;;;;;4.87;3.67;;;20.80;42.90;;;;;;5038999;28;20170;-11
2022/03/27 08:22:16;;;;;;;4.77;3.23;;;20.70;43.10;;;;;;5056217;28;20193;-11
2022/03/27 08:24:42;;;;;;;4.93;4.13;;;20.50;43.20;;;;;;5056022;28;20782;-11
2022/03/27 08:27:08;;;;;;;4.33;3.53;;;20.40;43.40;;;;;;5056052;28;20564;-11
2022/03/27 08:29:42;;;;;;;4.37;3.57;;;20.30;43.60;;;;;;5056209;28;20176;-11
2022/03/27 08:32:12;;;;;;;4.80;3.90;;;20.10;43.70;;;;;;5056444;28;20160;-11
2022/03/27 08:34:39;;;;;;;4.70;3.63;;;20.10;43.90;;;;;;5038889;28;20557;-11
2022/03/27 08:37:08;;;;;;;4.20;3.57;;;19.90;44.00;;;;;;5038591;28;20253;-11
2022/03/27 08:39:33;;;;;;;4.70;3.70;;;19.90;44.20;;;;;;5038814;28;20217;-11
2022/03/27 08:41:59;;;;;;;4.43;3.73;;;19.70;44.20;;;;;;5039244;28;20222;-11
2022/03/27 08:44:27;;;;;;;5.10;4.37;;;19.70;44.40;;;;;;5056389;28;20223;-11
2022/03/27 08:46:57;;;;;;;3.90;3.50;;;19.70;44.50;;;;;;5038845;28;20196;-11
2022/03/27 08:50:04;;;;;;;4.63;3.60;;;19.60;44.50;;;;;;5055929;28;20244;-11
2022/03/27 08:52:54;;;;;;;3.87;3.37;;;19.50;44.60;;;;;;5035498;28;20186;-11
2022/03/27 08:55:58;;;;;;;5.00;3.60;;;19.40;44.70;;;;;;5034482;28;20277;-11
2022/03/27 08:58:40;;;;;;;4.30;3.53;;;19.40;44.80;;;;;;5053086;28;20223;-11
2022/03/27 09:01:07;;;;;;;4.53;3.50;;;19.30;44.90;;;;;;5038037;28;20173;-11
2022/03/27 09:03:33;;;;;;;4.00;3.00;;;19.30;45.00;;;;;;5038475;28;20188;-11
2022/03/27 09:06:01;;;;;;;4.53;3.50;;;19.20;45.10;;;;;;5059362;28;20211;-11
2022/03/27 09:08:32;;;;;;;4.97;3.40;;;19.20;45.20;;;;;;5042389;28;20173;-11
2022/03/27 09:10:58;;;;;;;4.33;3.40;;;19.20;45.30;;;;;;5042632;28;20276;-11
2022/03/27 09:13:25;;;;;;;3.37;2.97;;;19.10;45.40;;;;;;5059959;28;20248;-11
2022/03/27 09:16:19;;;;;;;3.87;3.37;;;19.10;45.50;;;;;;5042521;28;20462;-11
2022/03/27 09:18:57;;;;;;;4.60;3.07;;;19.10;45.60;;;;;;5056396;28;20259;-11
2022/03/27 09:21:26;;;;;;;3.53;3.10;;;19.00;45.70;;;;;;5058485;28;20582;-11
2022/03/27 09:24:01;;;;;;;3.63;3.03;;;19.00;45.80;;;;;;5058645;28;20456;-11
2022/03/27 09:26:28;;;;;;;5.20;3.33;;;19.00;45.90;;;;;;5058864;28;20631;-11
2022/03/27 09:29:04;;;;;;;3.70;3.30;;;19.00;46.00;;;;;;5058958;28;20646;-11
2022/03/27 09:31:30;;;;;;;5.23;4.00;;;19.00;46.00;;;;;;5058389;28;20180;-11
2022/03/27 09:34:02;;;;;;;4.97;3.57;;;19.10;46.00;;;;;;5059223;28;20173;-11
2022/03/27 09:36:29;;;;;;;4.30;3.20;;;19.20;46.30;;;;;;5042109;28;20591;-11
2022/03/27 09:39:17;;;;;;;4.37;3.60;;;19.40;46.10;;;;;;5059513;28;20754;-11
2022/03/27 09:41:51;;;;;;;4.60;3.50;;;19.40;46.10;;;;;;5058963;28;20189;-11
2022/03/27 09:44:20;;;;;;;5.17;3.33;;;19.50;46.30;;;;;;5059432;28;20181;-11
2022/03/27 09:46:55;;;;;;;6.97;3.80;;;19.70;46.30;;;;;;5059585;28;20225;-11
2022/03/27 09:49:30;;;;;;;14.50;3.60;;;19.80;46.10;;;;;;5041459;28;20215;-11
2022/03/27 09:52:04;;;;;;;5.20;3.60;;;19.80;46.10;;;;;;5041289;28;20182;-11
2022/03/27 09:54:43;;;;;;;4.27;3.30;;;19.80;46.20;;;;;;5041470;28;20223;-11
2022/03/27 09:57:38;;;;;;;6.47;3.57;;;19.80;46.20;;;;;;5041348;28;20189;-11
2022/03/27 10:00:25;;;;;;;4.43;3.30;;;19.70;46.30;;;;;;5055775;28;20286;-11
2022/03/27 10:02:51;;;;;;;6.50;3.27;;;19.70;46.30;;;;;;5058097;28;20555;-11
2022/03/27 10:05:21;;;;;;;5.13;3.17;;;19.60;46.30;;;;;;5040418;28;20276;-11
2022/03/27 10:07:54;;;;;;;4.13;3.00;;;19.50;46.40;;;;;;5058380;28;20464;-11
2022/03/27 10:10:21;;;;;;;4.00;3.07;;;19.50;46.50;;;;;;5040925;28;20318;-11
2022/03/27 10:12:50;;;;;;;5.27;3.07;;;19.50;46.60;;;;;;5058401;28;20194;-11
2022/03/27 10:15:18;;;;;;;4.73;3.17;;;19.40;46.60;;;;;;5057260;28;20179;-11
2022/03/27 10:17:50;;;;;;;3.73;2.97;;;19.40;46.70;;;;;;5058276;28;20462;-11
2022/03/27 10:20:18;;;;;;;5.17;3.40;;;19.40;46.70;;;;;;5058380;28;20252;-11
2022/03/27 10:22:49;;;;;;;4.57;3.13;;;19.40;46.80;;;;;;5040322;28;20506;-11
2022/03/27 10:25:16;;;;;;;4.93;3.20;;;19.40;46.70;;;;;;5057984;28;20655;-11
2022/03/27 10:27:46;;;;;;;4.03;3.07;;;19.40;46.80;;;;;;5057760;28;20176;-11
2022/03/27 10:30:16;;;;;;;3.87;2.60;;;19.40;46.80;;;;;;5057879;28;20189;-11
2022/03/27 10:32:43;;;;;;;4.33;3.20;;;19.40;46.80;;;;;;5057034;28;20184;-11
2022/03/27 10:35:32;;;;;;;3.43;2.93;;;19.40;46.90;;;;;;5057775;28;20176;-11
2022/03/27 10:38:03;;;;;;;2.90;2.60;;;19.40;47.10;;;;;;5040335;28;20176;-11
2022/03/27 10:40:54;;;;;;;4.17;2.70;;;19.40;47.20;;;;;;5057237;28;20179;-11
2022/03/27 10:43:29;;;;;;;5.33;2.80;;;19.40;47.30;;;;;;5040443;28;20556;-11
2022/03/27 10:46:14;;;;;;;6.97;3.13;;;19.50;47.30;;;;;;5040235;28;20210;-11
2022/03/27 10:48:42;;;;;;;7.37;2.97;;;19.40;47.50;;;;;;5038656;28;20172;-11
2022/03/27 10:51:12;;;;;;;6.63;3.37;;;19.40;47.80;;;;;;5057435;28;20196;-11
2022/03/27 10:53:38;;;;;;;10.60;3.37;;;19.40;47.70;;;;;;5057524;28;20168;-11
2022/03/27 10:56:05;;;;;;;5.13;3.27;;;19.50;47.90;;;;;;5057306;28;20187;-11
2022/03/27 10:58:38;;;;;;;4.10;3.00;;;19.50;47.70;;;;;;5040008;28;20184;-11
2022/03/27 11:01:09;;;;;;;3.10;2.80;;;19.50;47.90;;;;;;5056948;28;20207;-11
2022/03/27 11:03:44;;;;;;;11.23;3.47;;;19.50;47.70;;;;;;5039490;28;20459;-11
2022/03/27 11:06:19;;;;;;;4.93;3.20;;;19.50;47.80;;;;;;5056829;28;20203;-11
2022/03/27 11:08:46;;;;;;;5.37;3.07;;;19.50;47.70;;;;;;5038531;28;20186;-12
2022/03/27 11:11:11;;;;;;;5.87;3.17;;;19.50;47.90;;;;;;5056876;28;20211;-11
2022/03/27 11:13:39;;;;;;;6.10;3.40;;;19.60;47.60;;;;;;5056927;28;20211;-11
2022/03/27 11:16:07;;;;;;;5.97;2.60;;;19.50;47.70;;;;;;5057848;28;20233;-11
2022/03/27 11:18:48;;;;;;;4.70;3.23;;;19.50;47.60;;;;;;5057087;28;20260;-11
2022/03/27 11:21:34;;;;;;;3.20;2.70;;;19.70;47.50;;;;;;5056612;28;20169;-11
2022/03/27 11:24:02;;;;;;;4.70;3.03;;;19.80;47.30;;;;;;5056196;28;20241;-11
2022/03/27 11:26:30;;;;;;;7.60;3.33;;;19.70;47.20;;;;;;5056054;28;20235;-11
2022/03/27 11:29:21;;;;;;;3.50;3.17;;;19.70;47.40;;;;;;5055796;28;20206;-11
2022/03/27 11:32:08;;;;;;;6.27;3.20;;;19.70;47.60;;;;;;5056824;28;20171;-11
2022/03/27 11:34:35;;;;;;;7.37;3.70;;;19.70;47.60;;;;;;5056732;28;20215;-11
2022/03/27 11:37:10;;;;;;;5.50;4.27;;;20.00;47.60;;;;;;5056951;28;20209;-11
2022/03/27 11:39:37;;;;;;;10.93;4.07;;;20.00;47.50;;;;;;5056887;28;20168;-11
2022/03/27 11:42:30;;;;;;;6.80;4.63;;;20.00;47.90;;;;;;5056235;28;20169;-11
2022/03/27 11:45:09;;;;;;;8.03;4.10;;;19.90;48.00;;;;;;5046614;28;20521;-11
2022/03/27 11:47:52;;;;;;;10.10;4.53;;;19.90;48.10;;;;;;5056684;28;20162;-11
2022/03/27 11:50:32;;;;;;;7.67;4.00;;;19.90;48.20;;;;;;5038758;28;20186;-11
2022/03/27 11:53:01;;;;;;;7.70;4.40;;;19.90;48.20;;;;;;5038788;28;20217;-11
2022/03/27 11:55:29;;;;;;;6.00;4.10;;;19.90;48.20;;;;;;5056171;28;20168;-11
2022/03/27 11:57:56;;;;;;;8.90;4.40;;;19.90;48.20;;;;;;5056573;28;20611;-11
2022/03/27 12:00:48;;;;;;;5.93;4.47;;;19.80;48.40;;;;;;5056162;28;20190;-11
2022/03/27 12:03:15;;;;;;;7.57;4.80;;;19.80;48.50;;;;;;5051018;28;20487;-11
2022/03/27 12:05:41;;;;;;;6.47;4.07;;;19.70;48.70;;;;;;5056057;28;20757;-11
2022/03/27 12:08:08;;;;;;;7.13;4.53;;;19.70;48.80;;;;;;5055894;28;20171;-11
2022/03/27 12:10:43;;;;;;;6.60;4.57;;;19.70;48.80;;;;;;5056613;28;20183;-11
2022/03/27 12:13:11;;;;;;;9.53;4.40;;;19.60;48.90;;;;;;5055883;28;20227;-11
2022/03/27 12:15:49;;;;;;;7.37;4.40;;;19.60;48.90;;;;;;5038104;28;20563;-11
2022/03/27 12:18:35;;;;;;;5.47;4.30;;;19.60;49.00;;;;;;5038681;28;20190;-11
2022/03/27 12:21:03;;;;;;;8.40;4.40;;;19.60;49.00;;;;;;5054896;28;20191;-11
2022/03/27 12:23:46;;;;;;;9.80;4.60;;;19.60;49.00;;;;;;5055812;28;20172;-11
2022/03/27 12:29:42;;;;;;;7.10;4.40;;;19.60;49.20;;;;;;5056734;28;20235;-11
2022/03/27 12:32:13;;;;;;;6.37;4.10;;;19.50;49.30;;;;;;5038957;28;20183;-11
2022/03/27 12:34:47;;;;;;;6.13;4.10;;;19.50;49.40;;;;;;5054217;28;20230;-11
2022/03/27 12:37:21;;;;;;;7.30;3.90;;;19.50;49.50;;;;;;5031710;28;20274;-11
2022/03/27 12:39:49;;;;;;;8.10;4.10;;;19.50;49.50;;;;;;5049931;28;20592;-11
2022/03/27 12:42:32;;;;;;;6.23;4.00;;;19.50;49.40;;;;;;5032203;28;20183;-11
2022/03/27 12:45:03;;;;;;;5.57;3.77;;;19.50;49.50;;;;;;5031760;28;20278;-11
2022/03/27 12:47:43;;;;;;;5.23;3.97;;;19.50;49.50;;;;;;5049554;28;20192;-11
2022/03/27 12:50:15;;;;;;;4.20;3.30;;;19.50;49.50;;;;;;5055767;28;20183;-11
2022/03/27 12:52:52;;;;;;;5.30;3.83;;;19.40;49.40;;;;;;5037729;28;20192;-11
2022/03/27 12:55:19;;;;;;;8.60;4.00;;;19.40;49.50;;;;;;5032704;28;20177;-11
2022/03/27 12:57:52;;;;;;;6.53;3.57;;;19.50;49.60;;;;;;5032000;28;20168;-11
2022/03/27 13:00:19;;;;;;;7.40;3.93;;;19.40;49.60;;;;;;5048934;28;20174;-11
2022/03/27 13:02:45;;;;;;;6.13;4.03;;;19.40;49.50;;;;;;5015984;28;20187;-11